sensor_id;sensor_type;location;lat;lon;timestamp;P1;durP1;ratioP1;P2;durP2;ratioP2
24637;SDS011;12773;50.162;8.548;2023-04-24T00:00:06;3.70;;;1.42;;
24637;SDS011;12773;50.162;8.548;2023-04-24T00:02:58;5.70;;;1.67;;
24637;SDS011;12773;50.162;8.548;2023-04-24T00:05:46;1.80;;;1.10;;
24637;SDS011;12773;50.162;8.548;2023-04-24T00:08:34;5.15;;;1.45;;
24637;SDS011;12773;50.162;8.548;2023-04-24T00:11:22;5.12;;;1.32;;
24637;SDS011;12773;50.162;8.548;2023-04-24T00:14:09;3.67;;;1.45;;
24637;SDS011;12773;50.162;8.548;2023-04-24T00:16:57;4.20;;;1.42;;
24637;SDS011;12773;50.162;8.548;2023-04-24T00:19:44;2.40;;;1.30;;
24637;SDS011;12773;50.162;8.548;2023-04-24T00:22:32;2.62;;;1.35;;
24637;SDS011;12773;50.162;8.548;2023-04-24T00:25:20;5.80;;;1.22;;
24637;SDS011;12773;50.162;8.548;2023-04-24T00:28:07;5.28;;;1.30;;
24637;SDS011;12773;50.162;8.548;2023-04-24T00:30:54;3.40;;;1.20;;
24637;SDS011;12773;50.162;8.548;2023-04-24T00:33:41;6.85;;;1.60;;
24637;SDS011;12773;50.162;8.548;2023-04-24T00:36:29;3.15;;;1.10;;
24637;SDS011;12773;50.162;8.548;2023-04-24T00:39:16;2.72;;;1.05;;
24637;SDS011;12773;50.162;8.548;2023-04-24T00:42:03;1.07;;;0.82;;
24637;SDS011;12773;50.162;8.548;2023-04-24T00:44:52;1.37;;;0.88;;
24637;SDS011;12773;50.162;8.548;2023-04-24T00:47:40;4.95;;;1.10;;
24637;SDS011;12773;50.162;8.548;2023-04-24T00:50:28;3.22;;;1.05;;
24637;SDS011;12773;50.162;8.548;2023-04-24T00:53:16;1.62;;;0.98;;
24637;SDS011;12773;50.162;8.548;2023-04-24T00:56:04;5.25;;;1.20;;
24637;SDS011;12773;50.162;8.548;2023-04-24T00:58:51;3.12;;;1.10;;
24637;SDS011;12773;50.162;8.548;2023-04-24T01:01:39;1.60;;;1.00;;
24637;SDS011;12773;50.162;8.548;2023-04-24T01:04:27;1.32;;;0.82;;
24637;SDS011;12773;50.162;8.548;2023-04-24T01:07:15;5.90;;;1.20;;
24637;SDS011;12773;50.162;8.548;2023-04-24T01:10:03;1.90;;;1.10;;
24637;SDS011;12773;50.162;8.548;2023-04-24T01:12:51;1.87;;;1.05;;
24637;SDS011;12773;50.162;8.548;2023-04-24T01:15:39;4.70;;;1.25;;
24637;SDS011;12773;50.162;8.548;2023-04-24T01:18:27;1.55;;;1.00;;
24637;SDS011;12773;50.162;8.548;2023-04-24T01:21:15;3.08;;;1.50;;
24637;SDS011;12773;50.162;8.548;2023-04-24T01:24:03;1.47;;;0.93;;
24637;SDS011;12773;50.162;8.548;2023-04-24T01:26:51;4.55;;;1.27;;
24637;SDS011;12773;50.162;8.548;2023-04-24T01:29:39;1.77;;;1.20;;
24637;SDS011;12773;50.162;8.548;2023-04-24T01:32:28;3.52;;;1.42;;
24637;SDS011;12773;50.162;8.548;2023-04-24T01:35:15;3.12;;;1.42;;
24637;SDS011;12773;50.162;8.548;2023-04-24T01:38:03;8.50;;;1.42;;
24637;SDS011;12773;50.162;8.548;2023-04-24T01:40:51;2.65;;;1.10;;
24637;SDS011;12773;50.162;8.548;2023-04-24T01:43:39;2.90;;;1.37;;
24637;SDS011;12773;50.162;8.548;2023-04-24T01:46:26;4.33;;;1.20;;
24637;SDS011;12773;50.162;8.548;2023-04-24T01:49:13;2.08;;;1.20;;
24637;SDS011;12773;50.162;8.548;2023-04-24T01:52:01;2.20;;;1.22;;
24637;SDS011;12773;50.162;8.548;2023-04-24T01:54:48;1.20;;;1.05;;
24637;SDS011;12773;50.162;8.548;2023-04-24T01:57:36;2.92;;;1.55;;
24637;SDS011;12773;50.162;8.548;2023-04-24T02:00:23;4.70;;;1.40;;
24637;SDS011;12773;50.162;8.548;2023-04-24T02:03:11;3.87;;;1.22;;
24637;SDS011;12773;50.162;8.548;2023-04-24T02:05:58;2.12;;;1.00;;
24637;SDS011;12773;50.162;8.548;2023-04-24T02:08:45;3.92;;;1.20;;
24637;SDS011;12773;50.162;8.548;2023-04-24T02:11:32;3.20;;;1.40;;
24637;SDS011;12773;50.162;8.548;2023-04-24T02:14:20;6.83;;;1.52;;
24637;SDS011;12773;50.162;8.548;2023-04-24T02:17:07;3.37;;;1.30;;
24637;SDS011;12773;50.162;8.548;2023-04-24T02:19:54;1.55;;;1.30;;
24637;SDS011;12773;50.162;8.548;2023-04-24T02:22:41;3.30;;;1.45;;
24637;SDS011;12773;50.162;8.548;2023-04-24T02:25:29;4.35;;;1.35;;
24637;SDS011;12773;50.162;8.548;2023-04-24T02:28:16;3.30;;;1.22;;
24637;SDS011;12773;50.162;8.548;2023-04-24T02:31:03;1.85;;;1.30;;
24637;SDS011;12773;50.162;8.548;2023-04-24T02:33:51;2.72;;;1.35;;
24637;SDS011;12773;50.162;8.548;2023-04-24T02:36:39;2.55;;;1.25;;
24637;SDS011;12773;50.162;8.548;2023-04-24T02:39:26;2.90;;;1.35;;
24637;SDS011;12773;50.162;8.548;2023-04-24T02:42:13;4.40;;;1.40;;
24637;SDS011;12773;50.162;8.548;2023-04-24T02:45:01;6.08;;;1.60;;
24637;SDS011;12773;50.162;8.548;2023-04-24T02:47:49;3.02;;;1.37;;
24637;SDS011;12773;50.162;8.548;2023-04-24T02:50:36;2.58;;;1.50;;
24637;SDS011;12773;50.162;8.548;2023-04-24T02:53:23;3.75;;;1.00;;
24637;SDS011;12773;50.162;8.548;2023-04-24T02:56:11;4.50;;;1.75;;
24637;SDS011;12773;50.162;8.548;2023-04-24T02:58:58;3.17;;;1.30;;
24637;SDS011;12773;50.162;8.548;2023-04-24T03:01:45;5.95;;;1.30;;
24637;SDS011;12773;50.162;8.548;2023-04-24T03:04:32;2.30;;;1.27;;
24637;SDS011;12773;50.162;8.548;2023-04-24T03:07:19;2.22;;;1.10;;
24637;SDS011;12773;50.162;8.548;2023-04-24T03:10:07;3.20;;;1.30;;
24637;SDS011;12773;50.162;8.548;2023-04-24T03:12:54;4.15;;;1.10;;
24637;SDS011;12773;50.162;8.548;2023-04-24T03:15:42;4.25;;;1.27;;
24637;SDS011;12773;50.162;8.548;2023-04-24T03:18:30;4.03;;;1.17;;
24637;SDS011;12773;50.162;8.548;2023-04-24T03:21:17;1.95;;;1.27;;
24637;SDS011;12773;50.162;8.548;2023-04-24T03:24:04;2.95;;;1.20;;
24637;SDS011;12773;50.162;8.548;2023-04-24T03:26:52;4.40;;;1.30;;
24637;SDS011;12773;50.162;8.548;2023-04-24T03:29:41;3.52;;;1.22;;
24637;SDS011;12773;50.162;8.548;2023-04-24T03:32:29;3.45;;;1.60;;
24637;SDS011;12773;50.162;8.548;2023-04-24T03:35:17;4.72;;;1.30;;
24637;SDS011;12773;50.162;8.548;2023-04-24T03:38:04;3.45;;;1.40;;
24637;SDS011;12773;50.162;8.548;2023-04-24T03:40:51;4.37;;;1.60;;
24637;SDS011;12773;50.162;8.548;2023-04-24T03:43:39;3.50;;;1.65;;
24637;SDS011;12773;50.162;8.548;2023-04-24T03:46:26;2.80;;;1.30;;
24637;SDS011;12773;50.162;8.548;2023-04-24T03:49:13;1.45;;;1.10;;
24637;SDS011;12773;50.162;8.548;2023-04-24T03:52:00;4.05;;;1.25;;
24637;SDS011;12773;50.162;8.548;2023-04-24T03:54:48;4.35;;;1.25;;
24637;SDS011;12773;50.162;8.548;2023-04-24T03:57:35;4.03;;;1.72;;
24637;SDS011;12773;50.162;8.548;2023-04-24T04:00:22;5.37;;;1.50;;
24637;SDS011;12773;50.162;8.548;2023-04-24T04:03:10;4.08;;;1.75;;
24637;SDS011;12773;50.162;8.548;2023-04-24T04:05:58;3.70;;;1.40;;
24637;SDS011;12773;50.162;8.548;2023-04-24T04:08:46;2.37;;;1.30;;
24637;SDS011;12773;50.162;8.548;2023-04-24T04:11:33;1.60;;;1.20;;
24637;SDS011;12773;50.162;8.548;2023-04-24T04:14:21;3.55;;;1.50;;
24637;SDS011;12773;50.162;8.548;2023-04-24T04:17:09;1.67;;;1.37;;
24637;SDS011;12773;50.162;8.548;2023-04-24T04:19:56;2.20;;;1.50;;
24637;SDS011;12773;50.162;8.548;2023-04-24T04:22:43;1.75;;;1.37;;
24637;SDS011;12773;50.162;8.548;2023-04-24T04:25:31;3.75;;;1.10;;
24637;SDS011;12773;50.162;8.548;2023-04-24T04:28:18;2.85;;;1.30;;
24637;SDS011;12773;50.162;8.548;2023-04-24T04:31:06;4.12;;;1.15;;
24637;SDS011;12773;50.162;8.548;2023-04-24T04:33:53;3.92;;;1.30;;
24637;SDS011;12773;50.162;8.548;2023-04-24T04:36:41;2.27;;;1.37;;
24637;SDS011;12773;50.162;8.548;2023-04-24T04:39:28;1.85;;;1.10;;
24637;SDS011;12773;50.162;8.548;2023-04-24T04:42:21;3.42;;;1.32;;
24637;SDS011;12773;50.162;8.548;2023-04-24T04:45:11;3.58;;;1.30;;
24637;SDS011;12773;50.162;8.548;2023-04-24T04:47:54;2.20;;;1.12;;
24637;SDS011;12773;50.162;8.548;2023-04-24T04:50:42;3.47;;;1.30;;
24637;SDS011;12773;50.162;8.548;2023-04-24T04:53:29;3.02;;;1.40;;
24637;SDS011;12773;50.162;8.548;2023-04-24T04:56:17;3.95;;;1.40;;
24637;SDS011;12773;50.162;8.548;2023-04-24T04:59:04;2.08;;;1.30;;
24637;SDS011;12773;50.162;8.548;2023-04-24T05:01:51;4.72;;;1.70;;
24637;SDS011;12773;50.162;8.548;2023-04-24T05:04:38;3.27;;;1.20;;
24637;SDS011;12773;50.162;8.548;2023-04-24T05:07:26;1.55;;;1.10;;
24637;SDS011;12773;50.162;8.548;2023-04-24T05:10:14;1.72;;;1.35;;
24637;SDS011;12773;50.162;8.548;2023-04-24T05:13:01;1.40;;;1.22;;
24637;SDS011;12773;50.162;8.548;2023-04-24T05:15:49;2.17;;;1.42;;
24637;SDS011;12773;50.162;8.548;2023-04-24T05:18:37;5.87;;;1.67;;
24637;SDS011;12773;50.162;8.548;2023-04-24T05:21:24;4.42;;;1.45;;
24637;SDS011;12773;50.162;8.548;2023-04-24T05:24:12;6.55;;;1.90;;
24637;SDS011;12773;50.162;8.548;2023-04-24T05:26:59;4.65;;;1.92;;
24637;SDS011;12773;50.162;8.548;2023-04-24T05:29:47;3.62;;;1.65;;
24637;SDS011;12773;50.162;8.548;2023-04-24T05:32:35;3.25;;;1.85;;
24637;SDS011;12773;50.162;8.548;2023-04-24T05:35:22;3.22;;;1.70;;
24637;SDS011;12773;50.162;8.548;2023-04-24T05:38:09;5.15;;;2.00;;
24637;SDS011;12773;50.162;8.548;2023-04-24T05:40:57;5.50;;;2.22;;
24637;SDS011;12773;50.162;8.548;2023-04-24T05:43:45;3.20;;;1.77;;
24637;SDS011;12773;50.162;8.548;2023-04-24T05:46:32;3.02;;;2.20;;
24637;SDS011;12773;50.162;8.548;2023-04-24T05:49:20;4.28;;;2.30;;
24637;SDS011;12773;50.162;8.548;2023-04-24T05:52:07;3.87;;;2.25;;
24637;SDS011;12773;50.162;8.548;2023-04-24T05:54:55;3.50;;;2.30;;
24637;SDS011;12773;50.162;8.548;2023-04-24T05:57:42;3.98;;;2.40;;
24637;SDS011;12773;50.162;8.548;2023-04-24T06:00:30;5.12;;;2.45;;
24637;SDS011;12773;50.162;8.548;2023-04-24T06:03:18;4.25;;;2.67;;
24637;SDS011;12773;50.162;8.548;2023-04-24T06:06:06;6.05;;;2.65;;
24637;SDS011;12773;50.162;8.548;2023-04-24T06:08:54;5.45;;;2.85;;
24637;SDS011;12773;50.162;8.548;2023-04-24T06:11:42;4.30;;;2.95;;
24637;SDS011;12773;50.162;8.548;2023-04-24T06:14:29;3.95;;;3.05;;
24637;SDS011;12773;50.162;8.548;2023-04-24T06:17:16;5.87;;;3.00;;
24637;SDS011;12773;50.162;8.548;2023-04-24T06:20:05;7.55;;;3.08;;
24637;SDS011;12773;50.162;8.548;2023-04-24T06:22:53;4.87;;;2.85;;
24637;SDS011;12773;50.162;8.548;2023-04-24T06:25:40;5.10;;;2.98;;
24637;SDS011;12773;50.162;8.548;2023-04-24T06:28:27;6.78;;;2.77;;
24637;SDS011;12773;50.162;8.548;2023-04-24T06:31:17;3.27;;;2.77;;
24637;SDS011;12773;50.162;8.548;2023-04-24T06:34:05;5.28;;;3.10;;
24637;SDS011;12773;50.162;8.548;2023-04-24T06:36:52;5.60;;;3.40;;
24637;SDS011;12773;50.162;8.548;2023-04-24T06:39:40;6.42;;;3.45;;
24637;SDS011;12773;50.162;8.548;2023-04-24T06:42:30;5.58;;;3.30;;
24637;SDS011;12773;50.162;8.548;2023-04-24T06:45:17;5.05;;;3.35;;
24637;SDS011;12773;50.162;8.548;2023-04-24T06:48:04;5.47;;;3.25;;
24637;SDS011;12773;50.162;8.548;2023-04-24T06:50:51;5.58;;;3.12;;
24637;SDS011;12773;50.162;8.548;2023-04-24T06:53:39;4.65;;;2.90;;
24637;SDS011;12773;50.162;8.548;2023-04-24T06:56:26;5.22;;;3.58;;
24637;SDS011;12773;50.162;8.548;2023-04-24T06:59:14;5.20;;;3.45;;
24637;SDS011;12773;50.162;8.548;2023-04-24T07:02:03;6.00;;;3.08;;
24637;SDS011;12773;50.162;8.548;2023-04-24T07:04:50;6.33;;;3.08;;
24637;SDS011;12773;50.162;8.548;2023-04-24T07:07:38;3.75;;;2.75;;
24637;SDS011;12773;50.162;8.548;2023-04-24T07:10:26;5.55;;;2.67;;
24637;SDS011;12773;50.162;8.548;2023-04-24T07:13:14;3.08;;;2.27;;
24637;SDS011;12773;50.162;8.548;2023-04-24T07:16:01;4.30;;;2.50;;
24637;SDS011;12773;50.162;8.548;2023-04-24T07:18:49;4.35;;;2.47;;
24637;SDS011;12773;50.162;8.548;2023-04-24T07:21:36;5.58;;;2.27;;
24637;SDS011;12773;50.162;8.548;2023-04-24T07:24:24;2.83;;;1.90;;
24637;SDS011;12773;50.162;8.548;2023-04-24T07:27:13;3.85;;;2.27;;
24637;SDS011;12773;50.162;8.548;2023-04-24T07:30:01;6.05;;;2.40;;
24637;SDS011;12773;50.162;8.548;2023-04-24T07:32:52;4.87;;;2.47;;
24637;SDS011;12773;50.162;8.548;2023-04-24T07:35:39;2.47;;;2.02;;
24637;SDS011;12773;50.162;8.548;2023-04-24T07:38:29;4.80;;;2.58;;
24637;SDS011;12773;50.162;8.548;2023-04-24T07:41:17;4.22;;;2.30;;
24637;SDS011;12773;50.162;8.548;2023-04-24T07:44:04;4.67;;;2.37;;
24637;SDS011;12773;50.162;8.548;2023-04-24T07:46:51;4.45;;;2.20;;
24637;SDS011;12773;50.162;8.548;2023-04-24T07:49:38;5.75;;;2.50;;
24637;SDS011;12773;50.162;8.548;2023-04-24T07:52:27;3.02;;;2.20;;
24637;SDS011;12773;50.162;8.548;2023-04-24T07:55:15;4.25;;;2.52;;
24637;SDS011;12773;50.162;8.548;2023-04-24T07:58:04;3.12;;;2.30;;
24637;SDS011;12773;50.162;8.548;2023-04-24T08:00:52;2.33;;;2.08;;
24637;SDS011;12773;50.162;8.548;2023-04-24T08:03:39;7.00;;;3.72;;
24637;SDS011;12773;50.162;8.548;2023-04-24T08:06:26;5.60;;;2.20;;
24637;SDS011;12773;50.162;8.548;2023-04-24T08:09:18;4.08;;;2.00;;
24637;SDS011;12773;50.162;8.548;2023-04-24T08:12:04;3.62;;;1.82;;
24637;SDS011;12773;50.162;8.548;2023-04-24T08:14:52;5.05;;;1.90;;
24637;SDS011;12773;50.162;8.548;2023-04-24T08:17:39;3.50;;;2.22;;
24637;SDS011;12773;50.162;8.548;2023-04-24T08:20:26;3.17;;;2.47;;
24637;SDS011;12773;50.162;8.548;2023-04-24T08:23:14;3.55;;;1.90;;
24637;SDS011;12773;50.162;8.548;2023-04-24T08:26:01;4.35;;;2.20;;
24637;SDS011;12773;50.162;8.548;2023-04-24T08:28:49;4.40;;;2.55;;
24637;SDS011;12773;50.162;8.548;2023-04-24T08:31:36;4.05;;;2.60;;
24637;SDS011;12773;50.162;8.548;2023-04-24T08:34:23;4.70;;;2.45;;
24637;SDS011;12773;50.162;8.548;2023-04-24T08:37:10;4.25;;;2.00;;
24637;SDS011;12773;50.162;8.548;2023-04-24T08:39:58;5.37;;;2.58;;
24637;SDS011;12773;50.162;8.548;2023-04-24T08:42:45;2.60;;;2.10;;
24637;SDS011;12773;50.162;8.548;2023-04-24T08:45:32;1.85;;;1.72;;
24637;SDS011;12773;50.162;8.548;2023-04-24T08:48:20;6.12;;;2.47;;
24637;SDS011;12773;50.162;8.548;2023-04-24T08:51:10;3.98;;;2.25;;
24637;SDS011;12773;50.162;8.548;2023-04-24T08:53:57;3.92;;;1.98;;
24637;SDS011;12773;50.162;8.548;2023-04-24T08:56:45;3.40;;;2.08;;
24637;SDS011;12773;50.162;8.548;2023-04-24T08:59:34;3.67;;;2.50;;
24637;SDS011;12773;50.162;8.548;2023-04-24T09:02:22;3.70;;;2.27;;
24637;SDS011;12773;50.162;8.548;2023-04-24T09:05:10;3.62;;;2.42;;
24637;SDS011;12773;50.162;8.548;2023-04-24T09:07:59;4.95;;;2.30;;
24637;SDS011;12773;50.162;8.548;2023-04-24T09:10:48;3.52;;;2.10;;
24637;SDS011;12773;50.162;8.548;2023-04-24T09:13:35;4.50;;;1.92;;
24637;SDS011;12773;50.162;8.548;2023-04-24T09:16:24;4.33;;;2.17;;
24637;SDS011;12773;50.162;8.548;2023-04-24T09:19:12;2.75;;;2.08;;
24637;SDS011;12773;50.162;8.548;2023-04-24T09:22:00;6.08;;;3.00;;
24637;SDS011;12773;50.162;8.548;2023-04-24T09:25:05;6.75;;;2.67;;
24637;SDS011;12773;50.162;8.548;2023-04-24T09:27:54;2.87;;;1.92;;
24637;SDS011;12773;50.162;8.548;2023-04-24T09:30:43;5.40;;;2.00;;
24637;SDS011;12773;50.162;8.548;2023-04-24T09:33:30;3.47;;;1.90;;
24637;SDS011;12773;50.162;8.548;2023-04-24T09:36:17;2.62;;;1.90;;
24637;SDS011;12773;50.162;8.548;2023-04-24T09:39:05;2.22;;;1.85;;
24637;SDS011;12773;50.162;8.548;2023-04-24T09:41:56;4.67;;;1.98;;
24637;SDS011;12773;50.162;8.548;2023-04-24T09:44:43;4.42;;;2.10;;
24637;SDS011;12773;50.162;8.548;2023-04-24T09:47:35;2.12;;;1.62;;
24637;SDS011;12773;50.162;8.548;2023-04-24T09:50:23;2.10;;;1.72;;
24637;SDS011;12773;50.162;8.548;2023-04-24T09:53:11;4.80;;;1.95;;
24637;SDS011;12773;50.162;8.548;2023-04-24T09:56:08;4.08;;;2.22;;
24637;SDS011;12773;50.162;8.548;2023-04-24T09:58:51;2.87;;;1.90;;
24637;SDS011;12773;50.162;8.548;2023-04-24T10:01:39;6.55;;;2.08;;
24637;SDS011;12773;50.162;8.548;2023-04-24T10:04:28;2.70;;;1.98;;
24637;SDS011;12773;50.162;8.548;2023-04-24T10:07:16;4.03;;;2.05;;
24637;SDS011;12773;50.162;8.548;2023-04-24T10:10:03;3.27;;;1.80;;
24637;SDS011;12773;50.162;8.548;2023-04-24T10:12:52;2.45;;;1.80;;
24637;SDS011;12773;50.162;8.548;2023-04-24T10:15:42;2.77;;;2.00;;
24637;SDS011;12773;50.162;8.548;2023-04-24T10:18:30;2.60;;;1.90;;
24637;SDS011;12773;50.162;8.548;2023-04-24T10:21:18;3.27;;;2.20;;
24637;SDS011;12773;50.162;8.548;2023-04-24T10:24:05;3.72;;;1.90;;
24637;SDS011;12773;50.162;8.548;2023-04-24T10:26:53;3.10;;;2.05;;
24637;SDS011;12773;50.162;8.548;2023-04-24T10:29:43;3.95;;;2.30;;
24637;SDS011;12773;50.162;8.548;2023-04-24T10:32:31;5.10;;;2.60;;
24637;SDS011;12773;50.162;8.548;2023-04-24T10:35:18;5.25;;;2.50;;
24637;SDS011;12773;50.162;8.548;2023-04-24T10:38:13;3.17;;;2.10;;
24637;SDS011;12773;50.162;8.548;2023-04-24T10:41:12;4.58;;;2.70;;
24637;SDS011;12773;50.162;8.548;2023-04-24T10:44:07;3.67;;;2.45;;
24637;SDS011;12773;50.162;8.548;2023-04-24T10:46:55;3.37;;;2.30;;
24637;SDS011;12773;50.162;8.548;2023-04-24T10:49:42;3.20;;;2.10;;
24637;SDS011;12773;50.162;8.548;2023-04-24T10:52:50;3.40;;;2.12;;
24637;SDS011;12773;50.162;8.548;2023-04-24T10:55:39;4.20;;;2.30;;
24637;SDS011;12773;50.162;8.548;2023-04-24T10:58:38;4.70;;;2.30;;
24637;SDS011;12773;50.162;8.548;2023-04-24T11:01:29;4.05;;;2.00;;
24637;SDS011;12773;50.162;8.548;2023-04-24T11:04:28;4.50;;;2.17;;
24637;SDS011;12773;50.162;8.548;2023-04-24T11:07:10;2.90;;;2.10;;
24637;SDS011;12773;50.162;8.548;2023-04-24T11:09:58;4.92;;;2.00;;
24637;SDS011;12773;50.162;8.548;2023-04-24T11:12:46;5.80;;;2.17;;
24637;SDS011;12773;50.162;8.548;2023-04-24T11:15:33;3.50;;;1.90;;
24637;SDS011;12773;50.162;8.548;2023-04-24T11:18:20;2.60;;;1.87;;
24637;SDS011;12773;50.162;8.548;2023-04-24T11:21:10;3.05;;;1.75;;
24637;SDS011;12773;50.162;8.548;2023-04-24T11:24:18;2.55;;;1.50;;
24637;SDS011;12773;50.162;8.548;2023-04-24T11:26:51;1.30;;;1.20;;
24637;SDS011;12773;50.162;8.548;2023-04-24T11:32:37;1.43;;;1.30;;
24637;SDS011;12773;50.162;8.548;2023-04-24T11:35:26;1.62;;;1.15;;
24637;SDS011;12773;50.162;8.548;2023-04-24T11:38:14;1.27;;;1.17;;
24637;SDS011;12773;50.162;8.548;2023-04-24T11:41:05;1.30;;;1.10;;
24637;SDS011;12773;50.162;8.548;2023-04-24T11:43:53;1.10;;;1.00;;
24637;SDS011;12773;50.162;8.548;2023-04-24T11:46:43;1.30;;;1.00;;
24637;SDS011;12773;50.162;8.548;2023-04-24T11:49:30;1.42;;;1.25;;
24637;SDS011;12773;50.162;8.548;2023-04-24T11:52:17;2.02;;;1.42;;
24637;SDS011;12773;50.162;8.548;2023-04-24T11:58:05;1.40;;;1.20;;
24637;SDS011;12773;50.162;8.548;2023-04-24T12:00:56;1.30;;;1.20;;
24637;SDS011;12773;50.162;8.548;2023-04-24T12:03:47;1.75;;;1.35;;
24637;SDS011;12773;50.162;8.548;2023-04-24T12:06:37;2.22;;;1.37;;
24637;SDS011;12773;50.162;8.548;2023-04-24T12:09:24;1.82;;;1.45;;
24637;SDS011;12773;50.162;8.548;2023-04-24T12:12:16;6.08;;;1.87;;
24637;SDS011;12773;50.162;8.548;2023-04-24T12:15:06;4.70;;;2.10;;
24637;SDS011;12773;50.162;8.548;2023-04-24T12:17:54;2.90;;;2.02;;
24637;SDS011;12773;50.162;8.548;2023-04-24T12:20:42;3.65;;;2.12;;
24637;SDS011;12773;50.162;8.548;2023-04-24T12:23:35;5.78;;;1.90;;
24637;SDS011;12773;50.162;8.548;2023-04-24T12:26:22;3.35;;;2.00;;
24637;SDS011;12773;50.162;8.548;2023-04-24T12:29:19;4.87;;;2.00;;
24637;SDS011;12773;50.162;8.548;2023-04-24T12:32:03;2.22;;;2.02;;
24637;SDS011;12773;50.162;8.548;2023-04-24T12:34:51;4.00;;;2.20;;
24637;SDS011;12773;50.162;8.548;2023-04-24T12:37:41;3.52;;;1.77;;
24637;SDS011;12773;50.162;8.548;2023-04-24T12:40:30;3.22;;;2.17;;
24637;SDS011;12773;50.162;8.548;2023-04-24T12:43:18;3.20;;;2.42;;
24637;SDS011;12773;50.162;8.548;2023-04-24T12:46:06;4.47;;;2.40;;
24637;SDS011;12773;50.162;8.548;2023-04-24T12:48:53;4.75;;;2.60;;
24637;SDS011;12773;50.162;8.548;2023-04-24T12:51:41;4.08;;;2.65;;
24637;SDS011;12773;50.162;8.548;2023-04-24T12:54:32;6.62;;;2.67;;
24637;SDS011;12773;50.162;8.548;2023-04-24T12:57:21;3.20;;;2.65;;
24637;SDS011;12773;50.162;8.548;2023-04-24T13:00:09;5.17;;;2.58;;
24637;SDS011;12773;50.162;8.548;2023-04-24T13:02:57;4.50;;;2.35;;
24637;SDS011;12773;50.162;8.548;2023-04-24T13:05:44;3.42;;;2.30;;
24637;SDS011;12773;50.162;8.548;2023-04-24T13:08:31;3.87;;;2.42;;
24637;SDS011;12773;50.162;8.548;2023-04-24T13:11:18;9.28;;;2.62;;
24637;SDS011;12773;50.162;8.548;2023-04-24T13:14:06;3.80;;;2.80;;
24637;SDS011;12773;50.162;8.548;2023-04-24T13:16:54;4.92;;;2.75;;
24637;SDS011;12773;50.162;8.548;2023-04-24T13:19:41;9.25;;;2.85;;
24637;SDS011;12773;50.162;8.548;2023-04-24T13:22:30;5.60;;;2.95;;
24637;SDS011;12773;50.162;8.548;2023-04-24T13:25:17;4.42;;;2.50;;
24637;SDS011;12773;50.162;8.548;2023-04-24T13:28:06;4.45;;;2.47;;
24637;SDS011;12773;50.162;8.548;2023-04-24T13:30:53;4.80;;;2.90;;
24637;SDS011;12773;50.162;8.548;2023-04-24T13:33:40;4.53;;;3.00;;
24637;SDS011;12773;50.162;8.548;2023-04-24T13:36:28;6.33;;;3.00;;
24637;SDS011;12773;50.162;8.548;2023-04-24T13:39:17;5.05;;;2.98;;
24637;SDS011;12773;50.162;8.548;2023-04-24T13:42:03;5.83;;;3.08;;
24637;SDS011;12773;50.162;8.548;2023-04-24T13:44:51;5.53;;;3.35;;
24637;SDS011;12773;50.162;8.548;2023-04-24T13:47:39;8.90;;;3.10;;
24637;SDS011;12773;50.162;8.548;2023-04-24T13:50:27;5.25;;;2.90;;
24637;SDS011;12773;50.162;8.548;2023-04-24T13:53:14;5.12;;;3.12;;
24637;SDS011;12773;50.162;8.548;2023-04-24T13:56:02;5.67;;;2.90;;
24637;SDS011;12773;50.162;8.548;2023-04-24T13:58:49;5.35;;;2.90;;
24637;SDS011;12773;50.162;8.548;2023-04-24T14:01:38;5.12;;;2.80;;
24637;SDS011;12773;50.162;8.548;2023-04-24T14:04:25;5.17;;;2.60;;
24637;SDS011;12773;50.162;8.548;2023-04-24T14:07:13;4.87;;;2.65;;
24637;SDS011;12773;50.162;8.548;2023-04-24T14:10:00;4.45;;;2.90;;
24637;SDS011;12773;50.162;8.548;2023-04-24T14:12:48;7.70;;;2.50;;
24637;SDS011;12773;50.162;8.548;2023-04-24T14:15:35;10.45;;;3.10;;
24637;SDS011;12773;50.162;8.548;2023-04-24T14:18:24;5.53;;;3.00;;
24637;SDS011;12773;50.162;8.548;2023-04-24T14:21:12;3.98;;;2.72;;
24637;SDS011;12773;50.162;8.548;2023-04-24T14:23:59;6.95;;;2.77;;
24637;SDS011;12773;50.162;8.548;2023-04-24T14:26:46;4.47;;;2.90;;
24637;SDS011;12773;50.162;8.548;2023-04-24T14:29:34;5.72;;;2.50;;
24637;SDS011;12773;50.162;8.548;2023-04-24T14:32:21;5.12;;;2.40;;
24637;SDS011;12773;50.162;8.548;2023-04-24T14:35:08;3.65;;;2.35;;
24637;SDS011;12773;50.162;8.548;2023-04-24T14:37:55;7.45;;;2.50;;
24637;SDS011;12773;50.162;8.548;2023-04-24T14:40:42;4.70;;;2.42;;
24637;SDS011;12773;50.162;8.548;2023-04-24T14:43:31;4.95;;;2.40;;
24637;SDS011;12773;50.162;8.548;2023-04-24T14:46:20;7.55;;;2.65;;
24637;SDS011;12773;50.162;8.548;2023-04-24T14:49:08;3.72;;;2.30;;
24637;SDS011;12773;50.162;8.548;2023-04-24T14:51:55;3.77;;;1.98;;
24637;SDS011;12773;50.162;8.548;2023-04-24T14:54:42;4.05;;;2.37;;
24637;SDS011;12773;50.162;8.548;2023-04-24T14:57:30;4.17;;;2.35;;
24637;SDS011;12773;50.162;8.548;2023-04-24T15:00:17;5.30;;;2.37;;
24637;SDS011;12773;50.162;8.548;2023-04-24T15:03:05;3.15;;;1.95;;
24637;SDS011;12773;50.162;8.548;2023-04-24T15:05:53;4.60;;;2.30;;
24637;SDS011;12773;50.162;8.548;2023-04-24T15:08:41;5.12;;;2.33;;
24637;SDS011;12773;50.162;8.548;2023-04-24T15:11:28;3.87;;;2.27;;
24637;SDS011;12773;50.162;8.548;2023-04-24T15:14:16;5.03;;;2.05;;
24637;SDS011;12773;50.162;8.548;2023-04-24T15:17:03;4.58;;;2.37;;
24637;SDS011;12773;50.162;8.548;2023-04-24T15:19:51;5.30;;;2.42;;
24637;SDS011;12773;50.162;8.548;2023-04-24T15:22:38;3.90;;;2.67;;
24637;SDS011;12773;50.162;8.548;2023-04-24T15:25:25;4.90;;;2.55;;
24637;SDS011;12773;50.162;8.548;2023-04-24T15:28:12;4.30;;;2.40;;
24637;SDS011;12773;50.162;8.548;2023-04-24T15:31:01;4.83;;;2.45;;
24637;SDS011;12773;50.162;8.548;2023-04-24T15:33:49;4.60;;;2.40;;
24637;SDS011;12773;50.162;8.548;2023-04-24T15:36:36;4.03;;;2.35;;
24637;SDS011;12773;50.162;8.548;2023-04-24T15:39:24;5.33;;;2.62;;
24637;SDS011;12773;50.162;8.548;2023-04-24T15:42:12;4.55;;;2.50;;
24637;SDS011;12773;50.162;8.548;2023-04-24T15:44:59;3.72;;;2.83;;
24637;SDS011;12773;50.162;8.548;2023-04-24T15:47:46;5.33;;;2.67;;
24637;SDS011;12773;50.162;8.548;2023-04-24T15:50:34;4.37;;;2.62;;
24637;SDS011;12773;50.162;8.548;2023-04-24T15:53:21;5.00;;;2.72;;
24637;SDS011;12773;50.162;8.548;2023-04-24T15:56:09;6.62;;;2.60;;
24637;SDS011;12773;50.162;8.548;2023-04-24T15:58:56;4.53;;;2.65;;
24637;SDS011;12773;50.162;8.548;2023-04-24T16:01:45;5.83;;;2.67;;
24637;SDS011;12773;50.162;8.548;2023-04-24T16:04:32;4.83;;;2.12;;
24637;SDS011;12773;50.162;8.548;2023-04-24T16:07:20;2.83;;;2.20;;
24637;SDS011;12773;50.162;8.548;2023-04-24T16:10:14;4.80;;;2.67;;
24637;SDS011;12773;50.162;8.548;2023-04-24T16:13:00;3.80;;;2.33;;
24637;SDS011;12773;50.162;8.548;2023-04-24T16:15:49;3.83;;;2.30;;
24637;SDS011;12773;50.162;8.548;2023-04-24T16:18:36;5.75;;;2.45;;
24637;SDS011;12773;50.162;8.548;2023-04-24T16:21:23;3.95;;;2.60;;
24637;SDS011;12773;50.162;8.548;2023-04-24T16:24:11;11.08;;;2.62;;
24637;SDS011;12773;50.162;8.548;2023-04-24T16:26:58;4.95;;;2.52;;
24637;SDS011;12773;50.162;8.548;2023-04-24T16:29:46;6.00;;;2.27;;
24637;SDS011;12773;50.162;8.548;2023-04-24T16:32:33;4.67;;;2.50;;
24637;SDS011;12773;50.162;8.548;2023-04-24T16:35:21;3.12;;;2.35;;
24637;SDS011;12773;50.162;8.548;2023-04-24T16:38:08;4.42;;;2.12;;
24637;SDS011;12773;50.162;8.548;2023-04-24T16:40:55;5.72;;;2.40;;
24637;SDS011;12773;50.162;8.548;2023-04-24T16:43:43;3.25;;;2.60;;
24637;SDS011;12773;50.162;8.548;2023-04-24T16:46:30;4.08;;;2.60;;
24637;SDS011;12773;50.162;8.548;2023-04-24T16:49:17;5.37;;;2.50;;
24637;SDS011;12773;50.162;8.548;2023-04-24T16:52:05;6.33;;;2.85;;
24637;SDS011;12773;50.162;8.548;2023-04-24T16:54:53;6.60;;;2.55;;
24637;SDS011;12773;50.162;8.548;2023-04-24T16:57:40;3.92;;;2.37;;